Time;durP1;ratioP1;P1;durP2;ratioP2;P2;SDS_P1;SDS_P2;PMS_P1;PMS_P2;Temp;Humidity;BMP_temperature;BMP_pressure;BME280_temperature;BME280_humidity;BME280_pressure;Samples;Min_cycle;Max_cycle;Signal;HPM_P1;HPM_P2
2023/05/02 00:00:20;;;;;;;;;;;9.00;99.90;;;;;;5055020;28;19976;-63
2023/05/02 00:02:51;;;;;;;;;;;9.00;99.90;;;;;;5065271;28;19933;-66
2023/05/02 00:05:23;;;;;;;;;;;9.00;99.90;;;;;;5045527;28;19978;-65
2023/05/02 00:07:55;;;;;;;;;;;9.00;99.90;;;;;;5060457;28;19924;-65
2023/05/02 00:10:26;;;;;;;;;;;9.00;99.90;;;;;;5058597;28;19933;-65
2023/05/02 00:12:58;;;;;;;;;;;9.00;99.90;;;;;;5055721;28;19932;-65
2023/05/02 00:15:30;;;;;;;;;;;9.00;99.90;;;;;;5070339;28;19924;-65
2023/05/02 00:18:01;;;;;;;;;;;8.90;99.90;;;;;;5066457;28;19924;-63
2023/05/02 00:20:28;;;;;;;;;;;8.90;99.90;;;;;;5060011;28;19924;-63
2023/05/02 00:22:59;;;;;;;;;;;8.90;99.90;;;;;;5062276;28;19929;-63
2023/05/02 00:25:31;;;;;;;;;;;8.90;99.90;;;;;;5064588;28;19924;-63
2023/05/02 00:28:03;;;;;;;;;;;8.90;99.90;;;;;;5052197;28;19951;-63
2023/05/02 00:30:35;;;;;;;;;;;8.90;99.90;;;;;;5042409;28;19925;-63
2023/05/02 00:33:07;;;;;;;;;;;8.80;99.90;;;;;;5046464;28;19990;-63
2023/05/02 00:35:39;;;;;;;;;;;8.80;99.90;;;;;;5046243;28;19924;-63
2023/05/02 00:38:11;;;;;;;;;;;8.80;99.90;;;;;;5066546;28;20302;-62
2023/05/02 00:40:44;;;;;;;;;;;8.80;99.90;;;;;;5050715;28;19929;-63
2023/05/02 00:43:16;;;;;;;;;;;8.80;99.90;;;;;;5042328;28;20587;-64
2023/05/02 00:45:47;;;;;;;;;;;8.80;99.90;;;;;;5061407;28;19990;-63
2023/05/02 00:48:20;;;;;;;;;;;8.90;99.90;;;;;;5045565;28;20289;-65
2023/05/02 00:50:52;;;;;;;;;;;8.80;99.90;;;;;;5047947;28;19929;-66
2023/05/02 00:53:24;;;;;;;;;;;8.80;99.90;;;;;;5053993;28;19947;-65
2023/05/02 00:55:57;;;;;;;;;;;8.80;99.90;;;;;;5053897;28;19924;-65
2023/05/02 00:58:29;;;;;;;;;;;8.80;99.90;;;;;;5050541;28;20355;-63
2023/05/02 01:01:19;;;;;;;;;;;8.90;99.90;;;;;;5054430;28;20442;-65
2023/05/02 01:04:01;;;;;;;;;;;8.80;99.90;;;;;;5028460;28;19928;-65
2023/05/02 01:06:47;;;;;;;;;;;8.80;99.90;;;;;;5040146;28;19987;-63
2023/05/02 01:09:28;;;;;;;;;;;8.80;99.90;;;;;;5046077;28;20039;-63
2023/05/02 01:12:05;;;;;;;;;;;8.90;99.90;;;;;;5063219;28;20016;-63
2023/05/02 01:14:39;;;;;;;;;;;8.80;99.90;;;;;;5050021;28;19935;-63
2023/05/02 01:17:12;;;;;;;;;;;8.80;99.90;;;;;;5046369;28;19925;-64
2023/05/02 01:19:48;;;;;;;;;;;8.80;99.90;;;;;;5068257;28;19928;-63
2023/05/02 01:22:21;;;;;;;;;;;8.80;99.90;;;;;;5045272;28;20008;-64
2023/05/02 01:24:59;;;;;;;;;;;8.70;99.90;;;;;;5042879;28;19929;-64
2023/05/02 01:27:28;;;;;;;;;;;8.70;99.90;;;;;;5046982;28;19925;-63
2023/05/02 01:30:00;;;;;;;;;;;8.70;99.90;;;;;;5046619;28;20412;-64
2023/05/02 01:32:33;;;;;;;;;;;8.70;99.90;;;;;;5046561;28;19929;-63
2023/05/02 01:35:05;;;;;;;;;;;8.60;99.90;;;;;;5046916;28;20381;-63
2023/05/02 01:37:38;;;;;;;;;;;8.60;99.90;;;;;;5046447;28;19939;-63
2023/05/02 01:40:10;;;;;;;;;;;8.60;99.90;;;;;;5064013;28;20276;-63
2023/05/02 01:42:43;;;;;;;;;;;8.50;99.90;;;;;;5068009;28;19924;-64
2023/05/02 01:45:15;;;;;;;;;;;8.60;99.90;;;;;;5054066;28;19977;-64
2023/05/02 01:47:48;;;;;;;;;;;8.50;99.90;;;;;;5042478;28;19932;-64
2023/05/02 01:50:22;;;;;;;;;;;8.50;99.90;;;;;;5037039;28;20308;-64
2023/05/02 01:52:54;;;;;;;;;;;8.50;99.90;;;;;;5040504;28;19933;-64
2023/05/02 01:55:26;;;;;;;;;;;8.50;99.90;;;;;;5059620;28;19928;-64
2023/05/02 01:57:59;;;;;;;;;;;8.60;99.90;;;;;;5030603;28;19928;-64
2023/05/02 02:00:31;;;;;;;;;;;8.50;99.90;;;;;;5050527;28;19928;-63
2023/05/02 02:03:05;;;;;;;;;;;8.60;99.90;;;;;;5045998;28;19929;-64
2023/05/02 02:05:38;;;;;;;;;;;8.60;99.90;;;;;;5060890;28;19987;-63
2023/05/02 02:08:10;;;;;;;;;;;8.60;99.90;;;;;;5038995;28;19974;-64
2023/05/02 02:10:43;;;;;;;;;;;8.60;99.90;;;;;;5038270;28;19928;-63
2023/05/02 02:13:17;;;;;;;;;;;8.60;99.90;;;;;;5038043;28;19928;-64
2023/05/02 02:15:49;;;;;;;;;;;8.60;99.90;;;;;;5056995;28;19924;-64
2023/05/02 02:18:22;;;;;;;;;;;8.60;99.90;;;;;;5042111;28;19929;-64
2023/05/02 02:20:54;;;;;;;;;;;8.60;99.90;;;;;;5060879;28;19925;-63
2023/05/02 02:23:27;;;;;;;;;;;8.60;99.90;;;;;;5046289;28;19929;-64
2023/05/02 02:26:00;;;;;;;;;;;8.60;99.90;;;;;;5048464;28;19939;-63
2023/05/02 02:28:32;;;;;;;;;;;8.60;99.90;;;;;;5045474;28;19925;-64
2023/05/02 02:31:04;;;;;;;;;;;8.60;99.90;;;;;;5038531;28;19936;-64
2023/05/02 02:33:36;;;;;;;;;;;8.60;99.90;;;;;;5056802;28;19960;-63
2023/05/02 02:36:14;;;;;;;;;;;8.60;99.90;;;;;;5056532;28;19924;-64
2023/05/02 02:38:59;;;;;;;;;;;8.60;99.90;;;;;;5042745;28;19932;-64
2023/05/02 02:41:35;;;;;;;;;;;8.60;99.90;;;;;;5039921;28;19977;-64
2023/05/02 02:44:10;;;;;;;;;;;8.60;99.90;;;;;;5029160;28;19931;-63
2023/05/02 02:46:54;;;;;;;;;;;8.60;99.90;;;;;;5031269;28;20389;-64
2023/05/02 02:49:30;;;;;;;;;;;8.60;99.90;;;;;;5048412;28;19931;-64
2023/05/02 02:52:16;;;;;;;;;;;8.60;99.90;;;;;;5042528;28;20376;-64
2023/05/02 02:55:08;;;;;;;;;;;8.60;99.90;;;;;;5053949;28;19929;-64
2023/05/02 02:57:46;;;;;;;;;;;8.60;99.90;;;;;;5039570;28;19925;-64
2023/05/02 03:00:20;;;;;;;;;;;8.60;99.90;;;;;;5026570;28;19932;-64
2023/05/02 03:02:52;;;;;;;;;;;8.60;99.90;;;;;;5039828;28;20377;-64
2023/05/02 03:05:24;;;;;;;;;;;8.60;99.90;;;;;;5048890;28;19929;-65
2023/05/02 03:07:57;;;;;;;;;;;8.60;99.90;;;;;;5044650;28;19982;-65
2023/05/02 03:10:29;;;;;;;;;;;8.60;99.90;;;;;;5030337;28;19924;-64
2023/05/02 03:13:01;;;;;;;;;;;8.50;99.90;;;;;;5027262;28;20029;-64
2023/05/02 03:15:52;;;;;;;;;;;8.50;99.90;;;;;;5044959;28;19925;-64
2023/05/02 03:18:27;;;;;;;;;;;8.50;99.90;;;;;;5029053;28;20033;-64
2023/05/02 03:20:59;;;;;;;;;;;8.50;99.90;;;;;;5036074;28;19932;-64
2023/05/02 03:23:31;;;;;;;;;;;8.50;99.90;;;;;;5038691;28;19995;-64
2023/05/02 03:26:03;;;;;;;;;;;8.50;99.90;;;;;;5057737;28;19951;-64
2023/05/02 03:28:30;;;;;;;;;;;8.50;99.90;;;;;;5043826;28;19932;-64
2023/05/02 03:31:03;;;;;;;;;;;8.50;99.90;;;;;;5050126;28;19924;-64
2023/05/02 03:33:37;;;;;;;;;;;8.50;99.90;;;;;;5047301;28;19933;-64
2023/05/02 03:36:04;;;;;;;;;;;8.50;99.90;;;;;;5049982;28;19935;-64
2023/05/02 03:38:37;;;;;;;;;;;8.50;99.90;;;;;;5026269;28;19936;-65
2023/05/02 03:41:11;;;;;;;;;;;8.40;99.90;;;;;;5046645;28;20016;-64
2023/05/02 03:43:43;;;;;;;;;;;8.50;99.90;;;;;;5060423;28;19979;-64
2023/05/02 03:46:16;;;;;;;;;;;8.40;99.90;;;;;;5036962;28;19928;-64
2023/05/02 03:48:48;;;;;;;;;;;8.40;99.90;;;;;;5047300;28;19930;-64
2023/05/02 03:51:19;;;;;;;;;;;8.40;99.90;;;;;;5044688;28;20027;-64
2023/05/02 03:53:54;;;;;;;;;;;8.40;99.90;;;;;;5050858;28;19928;-64
2023/05/02 03:56:26;;;;;;;;;;;8.40;99.90;;;;;;5044228;28;19974;-64
2023/05/02 03:59:13;;;;;;;;;;;8.40;99.90;;;;;;5043662;28;19929;-65
2023/05/02 04:01:49;;;;;;;;;;;8.40;99.90;;;;;;5059031;28;19935;-71
2023/05/02 04:04:18;;;;;;;;;;;8.40;99.90;;;;;;5037697;28;20012;-65
2023/05/02 04:06:52;;;;;;;;;;;8.40;99.90;;;;;;5039184;28;19929;-66
2023/05/02 04:09:24;;;;;;;;;;;8.40;99.90;;;;;;5039323;28;19931;-65
2023/05/02 04:12:03;;;;;;;;;;;8.40;99.90;;;;;;5041320;28;19937;-65
2023/05/02 04:14:39;;;;;;;;;;;8.50;99.90;;;;;;5032281;28;19925;-64
2023/05/02 04:17:12;;;;;;;;;;;8.50;99.90;;;;;;5051857;28;19935;-64
2023/05/02 04:19:44;;;;;;;;;;;8.50;99.90;;;;;;5046897;28;19924;-65
2023/05/02 04:22:12;;;;;;;;;;;8.50;99.90;;;;;;5040782;28;19925;-65
2023/05/02 04:24:49;;;;;;;;;;;8.40;99.90;;;;;;5034560;28;20023;-66
2023/05/02 04:27:21;;;;;;;;;;;8.40;99.90;;;;;;5041566;28;19924;-65
2023/05/02 04:29:53;;;;;;;;;;;8.40;99.90;;;;;;5055718;28;19929;-65
2023/05/02 04:32:22;;;;;;;;;;;8.40;99.90;;;;;;5042508;28;19960;-65
2023/05/02 04:34:55;;;;;;;;;;;8.50;99.90;;;;;;5047318;28;19926;-64
2023/05/02 04:37:27;;;;;;;;;;;8.40;99.90;;;;;;5036264;28;19925;-65
2023/05/02 04:40:00;;;;;;;;;;;8.50;99.90;;;;;;5036343;28;19931;-65
2023/05/02 04:42:31;;;;;;;;;;;8.40;99.90;;;;;;5051619;28;20012;-65
2023/05/02 04:45:29;;;;;;;;;;;8.50;99.90;;;;;;5062297;28;20006;-65
2023/05/02 04:48:03;;;;;;;;;;;8.50;99.90;;;;;;5049825;28;20020;-65
2023/05/02 04:50:35;;;;;;;;;;;8.50;99.90;;;;;;5046006;28;20059;-65
2023/05/02 04:53:01;;;;;;;;;;;8.60;99.90;;;;;;5036726;28;19925;-65
2023/05/02 04:55:34;;;;;;;;;;;8.60;99.90;;;;;;5046982;28;20610;-65
2023/05/02 04:58:06;;;;;;;;;;;8.60;99.90;;;;;;5052691;28;19948;-65
2023/05/02 05:00:39;;;;;;;;;;;8.60;99.90;;;;;;5045167;28;19931;-65
2023/05/02 05:03:10;;;;;;;;;;;8.50;99.90;;;;;;5065926;28;19931;-65
2023/05/02 05:05:42;;;;;;;;;;;8.60;99.90;;;;;;5046044;28;20318;-64
2023/05/02 05:08:16;;;;;;;;;;;8.50;99.90;;;;;;5056914;28;19937;-65
2023/05/02 05:10:47;;;;;;;;;;;8.50;99.90;;;;;;5040100;28;19974;-65
2023/05/02 05:13:20;;;;;;;;;;;8.50;99.90;;;;;;5037382;28;20012;-65
2023/05/02 05:15:52;;;;;;;;;;;8.50;99.90;;;;;;5049027;28;20408;-65
2023/05/02 05:18:22;;;;;;;;;;;8.60;99.90;;;;;;5038891;28;20393;-64
2023/05/02 05:20:54;;;;;;;;;;;8.60;99.90;;;;;;5057305;28;20010;-65
2023/05/02 05:23:27;;;;;;;;;;;8.50;99.90;;;;;;5041049;28;20015;-65
2023/05/02 05:26:07;;;;;;;;;;;8.60;99.90;;;;;;5035846;28;20403;-65
2023/05/02 05:28:34;;;;;;;;;;;8.60;99.90;;;;;;5049202;28;19972;-65
2023/05/02 05:31:10;;;;;;;;;;;8.70;99.90;;;;;;5039572;28;19929;-66
2023/05/02 05:33:44;;;;;;;;;;;8.70;99.90;;;;;;5057268;28;19929;-65
2023/05/02 05:36:17;;;;;;;;;;;8.70;99.90;;;;;;5037040;28;19928;-65
2023/05/02 05:38:49;;;;;;;;;;;8.70;99.90;;;;;;5042173;28;20205;-64
2023/05/02 05:41:21;;;;;;;;;;;8.80;99.90;;;;;;5046708;28;19925;-64
2023/05/02 05:44:00;;;;;;;;;;;8.80;99.90;;;;;;5059766;28;19928;-64
2023/05/02 05:46:31;;;;;;;;;;;8.80;99.90;;;;;;5065001;28;19924;-65
2023/05/02 05:49:05;;;;;;;;;;;8.90;99.90;;;;;;5032477;28;19924;-65
2023/05/02 05:51:37;;;;;;;;;;;9.00;99.90;;;;;;5045424;28;19925;-64
2023/05/02 05:54:10;;;;;;;;;;;9.00;99.90;;;;;;5051325;28;20453;-67
2023/05/02 05:56:41;;;;;;;;;;;9.10;99.90;;;;;;5030854;28;19925;-65
2023/05/02 05:59:16;;;;;;;;;;;9.10;99.90;;;;;;5042985;28;20618;-65
2023/05/02 06:01:48;;;;;;;;;;;9.10;99.90;;;;;;5038339;28;19938;-65
2023/05/02 06:04:21;;;;;;;;;;;9.20;99.90;;;;;;5048501;28;20277;-65
2023/05/02 06:06:54;;;;;;;;;;;9.30;99.90;;;;;;5044752;28;19975;-65
2023/05/02 06:09:25;;;;;;;;;;;9.30;99.90;;;;;;5029751;28;19925;-65
2023/05/02 06:11:57;;;;;;;;;;;9.40;99.90;;;;;;5042651;28;19979;-65
2023/05/02 06:14:31;;;;;;;;;;;9.40;99.90;;;;;;5048113;28;20025;-66
2023/05/02 06:17:02;;;;;;;;;;;9.30;99.90;;;;;;5050565;28;19925;-66
2023/05/02 06:19:34;;;;;;;;;;;9.30;99.90;;;;;;5040771;28;19929;-65
2023/05/02 06:22:01;;;;;;;;;;;9.40;99.90;;;;;;5039530;28;20015;-65
2023/05/02 06:24:33;;;;;;;;;;;9.50;99.90;;;;;;5040305;28;19924;-65
2023/05/02 06:27:05;;;;;;;;;;;9.50;99.90;;;;;;5054593;28;20006;-64
2023/05/02 06:29:37;;;;;;;;;;;9.60;99.90;;;;;;5057048;28;20344;-65
2023/05/02 06:32:08;;;;;;;;;;;9.80;99.90;;;;;;5064532;28;19928;-64
2023/05/02 06:34:40;;;;;;;;;;;9.90;99.90;;;;;;5063107;28;20039;-65
2023/05/02 06:37:12;;;;;;;;;;;9.80;99.90;;;;;;5061392;28;19929;-65
2023/05/02 06:39:43;;;;;;;;;;;9.90;99.90;;;;;;5061844;28;19925;-65
2023/05/02 06:42:15;;;;;;;;;;;10.00;99.90;;;;;;5062649;28;19925;-64
2023/05/02 06:44:47;;;;;;;;;;;10.00;99.90;;;;;;5050812;28;19932;-65
2023/05/02 06:47:18;;;;;;;;;;;10.10;99.90;;;;;;5054598;28;19929;-65
2023/05/02 06:49:51;;;;;;;;;;;10.10;99.90;;;;;;5048240;28;19928;-65
2023/05/02 06:52:23;;;;;;;;;;;10.20;99.90;;;;;;5056190;28;19951;-65
2023/05/02 06:54:55;;;;;;;;;;;10.30;99.90;;;;;;5059400;28;19970;-65
2023/05/02 06:57:26;;;;;;;;;;;10.30;99.90;;;;;;5064074;28;19978;-65
2023/05/02 06:59:58;;;;;;;;;;;10.40;99.90;;;;;;5044604;28;19994;-65
2023/05/02 07:02:30;;;;;;;;;;;10.40;99.90;;;;;;5057616;28;19925;-65
2023/05/02 07:04:57;;;;;;;;;;;10.40;99.90;;;;;;5063938;28;19924;-65
2023/05/02 07:07:28;;;;;;;;;;;10.50;99.90;;;;;;5044989;28;19928;-65
2023/05/02 07:10:00;;;;;;;;;;;10.60;99.90;;;;;;5057437;28;19929;-65
2023/05/02 07:12:32;;;;;;;;;;;10.70;99.90;;;;;;5053667;28;19924;-65
2023/05/02 07:15:07;;;;;;;;;;;10.80;99.90;;;;;;5058582;28;19931;-65
2023/05/02 07:17:39;;;;;;;;;;;10.90;99.90;;;;;;5062962;28;19928;-66
2023/05/02 07:20:11;;;;;;;;;;;11.00;99.90;;;;;;5062847;28;19924;-65
2023/05/02 07:22:43;;;;;;;;;;;11.00;99.90;;;;;;5059166;28;19935;-65
2023/05/02 07:25:15;;;;;;;;;;;11.10;99.90;;;;;;5058932;28;19928;-65
2023/05/02 07:27:47;;;;;;;;;;;11.20;99.90;;;;;;5041022;28;19982;-64
2023/05/02 07:30:18;;;;;;;;;;;11.20;99.90;;;;;;5054207;28;19935;-65
2023/05/02 07:32:50;;;;;;;;;;;11.30;99.90;;;;;;5055123;28;20274;-65
2023/05/02 07:35:22;;;;;;;;;;;11.40;99.90;;;;;;5046081;28;19935;-65
2023/05/02 07:37:53;;;;;;;;;;;11.40;99.90;;;;;;5045985;28;20278;-65
2023/05/02 07:40:25;;;;;;;;;;;11.50;99.90;;;;;;5041127;28;19970;-65
2023/05/02 07:42:59;;;;;;;;;;;11.50;99.90;;;;;;5060527;28;19928;-66
2023/05/02 07:45:31;;;;;;;;;;;11.70;99.90;;;;;;5050676;28;19928;-65
2023/05/02 07:48:03;;;;;;;;;;;11.70;99.90;;;;;;5041808;28;19978;-65
2023/05/02 07:50:35;;;;;;;;;;;11.80;99.90;;;;;;5056182;28;19947;-65
2023/05/02 07:53:02;;;;;;;;;;;11.90;99.90;;;;;;5053864;28;20294;-65
2023/05/02 07:55:34;;;;;;;;;;;12.00;99.90;;;;;;5057044;28;19970;-64
2023/05/02 07:58:05;;;;;;;;;;;12.00;99.90;;;;;;5036457;28;19933;-65
2023/05/02 08:00:37;;;;;;;;;;;12.10;99.90;;;;;;5051850;28;19925;-65
2023/05/02 08:03:09;;;;;;;;;;;12.20;99.90;;;;;;5068938;28;19990;-65
2023/05/02 08:05:41;;;;;;;;;;;12.40;99.90;;;;;;5055057;28;20022;-65
2023/05/02 08:08:13;;;;;;;;;;;12.40;99.90;;;;;;5053749;28;19929;-65
2023/05/02 08:10:45;;;;;;;;;;;12.50;99.90;;;;;;5046234;28;19960;-65
2023/05/02 08:13:17;;;;;;;;;;;12.50;99.90;;;;;;5060302;28;19928;-65
2023/05/02 08:15:43;;;;;;;;;;;12.50;99.90;;;;;;5053394;28;19924;-64
2023/05/02 08:18:16;;;;;;;;;;;12.50;99.90;;;;;;5055674;28;19986;-65
2023/05/02 08:20:49;;;;;;;;;;;12.50;99.90;;;;;;5061549;28;20328;-65
2023/05/02 08:23:22;;;;;;;;;;;12.50;99.90;;;;;;5068769;28;20012;-64
2023/05/02 08:25:54;;;;;;;;;;;12.50;99.90;;;;;;5067131;28;19968;-65
2023/05/02 08:28:26;;;;;;;;;;;12.60;99.90;;;;;;5048059;28;19924;-65
2023/05/02 08:30:58;;;;;;;;;;;12.60;99.90;;;;;;5056269;28;19924;-65
2023/05/02 08:33:25;;;;;;;;;;;12.60;99.90;;;;;;5062319;28;19924;-65
2023/05/02 08:35:56;;;;;;;;;;;12.70;99.90;;;;;;5041347;28;19974;-65
2023/05/02 08:38:30;;;;;;;;;;;12.70;99.90;;;;;;5060053;28;20484;-65
2023/05/02 08:41:02;;;;;;;;;;;12.80;99.90;;;;;;5065267;28;19929;-65
2023/05/02 08:43:35;;;;;;;;;;;12.80;99.90;;;;;;5048123;28;19935;-65
2023/05/02 08:46:10;;;;;;;;;;;12.80;99.90;;;;;;5035442;28;19928;-65
2023/05/02 08:48:43;;;;;;;;;;;12.80;99.90;;;;;;5064816;28;19951;-65
2023/05/02 08:51:14;;;;;;;;;;;12.70;99.90;;;;;;5063020;28;19929;-65
2023/05/02 08:53:45;;;;;;;;;;;12.80;99.90;;;;;;5066139;28;19928;-65
2023/05/02 08:56:17;;;;;;;;;;;12.80;99.90;;;;;;5049585;28;20278;-65
2023/05/02 08:58:44;;;;;;;;;;;12.80;99.90;;;;;;5063657;28;19924;-65
2023/05/02 09:01:17;;;;;;;;;;;12.90;99.90;;;;;;5065915;28;19929;-65
2023/05/02 09:03:49;;;;;;;;;;;13.00;99.90;;;;;;5071914;28;19929;-64
2023/05/02 09:06:21;;;;;;;;;;;13.00;99.90;;;;;;5054304;28;19936;-64
2023/05/02 09:08:53;;;;;;;;;;;13.00;99.90;;;;;;5041810;28;19924;-64
2023/05/02 09:11:25;;;;;;;;;;;13.00;99.90;;;;;;5066081;28;19924;-64
2023/05/02 09:14:02;;;;;;;;;;;12.90;99.90;;;;;;5047809;28;20351;-65
2023/05/02 09:16:37;;;;;;;;;;;12.90;99.90;;;;;;5042401;28;19974;-65
2023/05/02 09:19:09;;;;;;;;;;;13.00;99.90;;;;;;5031679;28;19929;-65
2023/05/02 09:21:40;;;;;;;;;;;13.00;99.90;;;;;;5067143;28;19932;-65
2023/05/02 09:24:19;;;;;;;;;;;13.00;99.90;;;;;;5069356;28;19928;-65
2023/05/02 09:26:58;;;;;;;;;;;13.00;99.90;;;;;;5068319;28;19924;-64
2023/05/02 09:29:34;;;;;;;;;;;13.10;99.90;;;;;;5063509;28;19936;-64
2023/05/02 09:32:06;;;;;;;;;;;13.00;99.90;;;;;;5058865;28;19925;-65
2023/05/02 09:34:38;;;;;;;;;;;13.00;99.90;;;;;;5058299;28;19935;-65
2023/05/02 09:37:12;;;;;;;;;;;13.10;99.90;;;;;;5058435;28;19924;-65
2023/05/02 09:40:03;;;;;;;;;;;13.20;99.90;;;;;;5062694;28;19925;-65
2023/05/02 09:42:35;;;;;;;;;;;13.20;99.90;;;;;;5063108;28;19932;-65
2023/05/02 09:45:07;;;;;;;;;;;13.40;99.90;;;;;;5065205;28;19924;-65
2023/05/02 09:47:40;;;;;;;;;;;13.30;99.90;;;;;;5067992;28;19924;-65
2023/05/02 09:50:30;;;;;;;;;;;13.30;99.90;;;;;;5055961;28;19925;-65
2023/05/02 09:53:02;;;;;;;;;;;13.30;99.90;;;;;;5053692;28;19987;-65
2023/05/02 09:55:30;;;;;;;;;;;13.30;99.90;;;;;;5058199;28;19931;-64
2023/05/02 09:58:02;;;;;;;;;;;13.30;99.90;;;;;;5060336;28;19936;-65
2023/05/02 10:00:36;;;;;;;;;;;13.40;99.90;;;;;;5060601;28;19932;-65
2023/05/02 10:03:09;;;;;;;;;;;13.60;99.90;;;;;;5061223;28;19925;-65
2023/05/02 10:05:37;;;;;;;;;;;13.70;99.90;;;;;;5062902;28;19932;-65
2023/05/02 10:08:10;;;;;;;;;;;13.90;99.90;;;;;;5066755;28;19924;-65
2023/05/02 10:10:51;;;;;;;;;;;13.90;99.90;;;;;;5053716;28;20398;-65
2023/05/02 10:13:26;;;;;;;;;;;13.90;99.90;;;;;;5056803;28;19933;-65
2023/05/02 10:15:59;;;;;;;;;;;13.90;99.90;;;;;;5059048;28;19983;-65
2023/05/02 10:18:36;;;;;;;;;;;14.00;99.90;;;;;;5055869;28;20397;-65
2023/05/02 10:21:10;;;;;;;;;;;14.10;99.90;;;;;;5059897;28;19925;-65
2023/05/02 10:23:43;;;;;;;;;;;14.20;99.90;;;;;;5061450;28;19959;-65
2023/05/02 10:26:15;;;;;;;;;;;14.10;99.90;;;;;;5062228;28;19932;-64
2023/05/02 10:28:47;;;;;;;;;;;14.00;99.90;;;;;;5063524;28;19929;-65
2023/05/02 10:31:19;;;;;;;;;;;14.00;99.90;;;;;;5066776;28;19924;-65
2023/05/02 10:33:51;;;;;;;;;;;14.10;99.90;;;;;;5063885;28;19991;-65
2023/05/02 10:36:23;;;;;;;;;;;14.10;99.90;;;;;;5043128;28;19924;-65
2023/05/02 10:38:55;;;;;;;;;;;14.20;99.90;;;;;;5052730;28;20417;-65
2023/05/02 10:41:29;;;;;;;;;;;14.50;99.90;;;;;;5058031;28;20400;-65
2023/05/02 10:44:06;;;;;;;;;;;14.80;99.90;;;;;;5056951;28;19929;-65
2023/05/02 10:46:41;;;;;;;;;;;15.10;99.90;;;;;;5047422;28;19929;-65
2023/05/02 10:49:13;;;;;;;;;;;15.30;99.90;;;;;;5061126;28;19926;-65
2023/05/02 10:51:45;;;;;;;;;;;15.30;99.90;;;;;;5063999;28;20706;-65
2023/05/02 10:54:20;;;;;;;;;;;15.30;99.90;;;;;;5035725;28;19936;-65
2023/05/02 10:57:04;;;;;;;;;;;15.30;99.90;;;;;;5062739;28;19929;-65
2023/05/02 10:59:37;;;;;;;;;;;15.40;99.90;;;;;;5055591;28;19929;-65
2023/05/02 11:02:29;;;;;;;;;;;15.60;99.90;;;;;;5061012;28;19925;-65
2023/05/02 11:05:02;;;;;;;;;;;15.70;99.90;;;;;;5055076;28;19959;-65
2023/05/02 11:07:35;;;;;;;;;;;15.70;99.90;;;;;;5060417;28;19925;-64
2023/05/02 11:10:16;;;;;;;;;;;15.70;99.90;;;;;;5058679;28;19924;-65
2023/05/02 11:12:51;;;;;;;;;;;15.70;99.90;;;;;;5061101;28;20282;-64
2023/05/02 11:15:31;;;;;;;;;;;15.70;99.90;;;;;;5063588;28;20428;-65
2023/05/02 11:18:01;;;;;;;;;;;15.80;99.90;;;;;;5046426;28;19925;-64
2023/05/02 11:20:34;;;;;;;;;;;15.90;99.90;;;;;;5060110;28;19929;-64
2023/05/02 11:23:15;;;;;;;;;;;16.10;99.90;;;;;;5054041;28;19979;-65
2023/05/02 11:25:48;;;;;;;;;;;16.00;99.90;;;;;;5060084;28;19996;-65
2023/05/02 11:28:35;;;;;;;;;;;16.20;99.90;;;;;;5047675;28;20305;-65
2023/05/02 11:31:22;;;;;;;;;;;16.20;99.90;;;;;;5057806;28;20319;-65
2023/05/02 11:33:58;;;;;;;;;;;16.10;99.90;;;;;;5060622;28;19925;-65
2023/05/02 11:36:32;;;;;;;;;;;16.00;99.90;;;;;;5029812;28;19925;-65
2023/05/02 11:39:06;;;;;;;;;;;15.70;99.90;;;;;;5042181;28;19928;-65
2023/05/02 11:41:41;;;;;;;;;;;15.50;99.90;;;;;;5057480;28;19925;-64
2023/05/02 11:44:13;;;;;;;;;;;15.30;99.90;;;;;;5032457;28;19974;-65
2023/05/02 11:46:44;;;;;;;;;;;15.20;99.90;;;;;;5056662;28;19932;-65
2023/05/02 11:49:16;;;;;;;;;;;15.10;99.90;;;;;;5043289;28;19935;-65
2023/05/02 11:51:48;;;;;;;;;;;15.00;99.90;;;;;;5060106;28;19929;-65
2023/05/02 11:54:20;;;;;;;;;;;15.10;99.90;;;;;;5056947;28;19932;-65
2023/05/02 11:56:52;;;;;;;;;;;15.30;99.90;;;;;;5046818;28;19933;-64
2023/05/02 11:59:23;;;;;;;;;;;15.50;99.90;;;;;;5062301;28;19924;-64
2023/05/02 12:01:56;;;;;;;;;;;15.80;99.90;;;;;;5062604;28;20626;-67
2023/05/02 12:04:28;;;;;;;;;;;16.00;99.90;;;;;;5059295;28;19929;-64
2023/05/02 12:07:00;;;;;;;;;;;16.20;99.90;;;;;;5040848;28;19929;-65
2023/05/02 12:09:32;;;;;;;;;;;16.20;99.90;;;;;;5051437;28;19990;-65
2023/05/02 12:12:04;;;;;;;;;;;16.40;99.90;;;;;;5060978;28;20372;-65
2023/05/02 12:14:36;;;;;;;;;;;16.50;99.90;;;;;;5057056;28;19924;-65
2023/05/02 12:17:08;;;;;;;;;;;16.60;99.90;;;;;;5058998;28;20348;-65
2023/05/02 12:19:40;;;;;;;;;;;16.70;99.90;;;;;;5059882;28;20341;-64
2023/05/02 12:22:13;;;;;;;;;;;16.90;99.90;;;;;;5056044;28;19924;-64
2023/05/02 12:24:45;;;;;;;;;;;16.90;99.90;;;;;;5057976;28;19929;-64
2023/05/02 12:27:17;;;;;;;;;;;16.70;99.90;;;;;;5059399;28;19928;-64
2023/05/02 12:29:48;;;;;;;;;;;16.50;99.90;;;;;;5058544;28;19932;-64
2023/05/02 12:32:33;;;;;;;;;;;16.40;99.90;;;;;;5053130;28;19979;-65
2023/05/02 12:35:19;;;;;;;;;;;16.40;99.90;;;;;;5040839;28;19929;-65
2023/05/02 12:37:52;;;;;;;;;;;16.30;99.90;;;;;;5062219;28;19970;-64
2023/05/02 12:40:24;;;;;;;;;;;16.20;99.90;;;;;;5062425;28;19978;-65
2023/05/02 12:43:02;;;;;;;;;;;16.10;99.90;;;;;;5060884;28;20066;-64
2023/05/02 12:45:33;;;;;;;;;;;16.00;99.90;;;;;;5061882;28;19925;-65
2023/05/02 12:48:17;;;;;;;;;;;15.90;99.90;;;;;;5061332;28;20301;-64
2023/05/02 12:50:49;;;;;;;;;;;15.80;99.90;;;;;;5063799;28;20019;-65
2023/05/02 12:53:40;;;;;;;;;;;15.80;99.90;;;;;;5049587;28;19967;-65
2023/05/02 12:56:12;;;;;;;;;;;15.80;99.90;;;;;;5045048;28;19928;-64
2023/05/02 12:58:45;;;;;;;;;;;15.80;99.90;;;;;;5042292;28;20389;-64
2023/05/02 13:01:17;;;;;;;;;;;15.70;99.90;;;;;;5045199;28;19932;-64
2023/05/02 13:03:49;;;;;;;;;;;15.60;99.90;;;;;;5053519;28;19936;-65
2023/05/02 13:06:21;;;;;;;;;;;15.50;99.90;;;;;;5047379;28;19933;-65
2023/05/02 13:08:53;;;;;;;;;;;15.40;99.90;;;;;;5061857;28;20011;-64
2023/05/02 13:11:24;;;;;;;;;;;15.30;99.90;;;;;;5062551;28;20446;-64
2023/05/02 13:13:59;;;;;;;;;;;15.30;99.90;;;;;;5069607;28;19932;-65
2023/05/02 13:16:32;;;;;;;;;;;15.30;99.90;;;;;;5047707;28;20267;-65
2023/05/02 13:19:04;;;;;;;;;;;15.40;99.90;;;;;;5057331;28;20028;-65
2023/05/02 13:21:36;;;;;;;;;;;15.40;99.90;;;;;;5059843;28;19935;-64
2023/05/02 13:24:07;;;;;;;;;;;15.50;99.90;;;;;;5060812;28;19924;-65
2023/05/02 13:26:40;;;;;;;;;;;15.60;99.90;;;;;;5066396;28;19978;-65
2023/05/02 13:29:11;;;;;;;;;;;15.70;99.90;;;;;;5044801;28;19928;-65
2023/05/02 13:31:43;;;;;;;;;;;15.90;99.90;;;;;;5063217;28;19974;-65
2023/05/02 13:34:15;;;;;;;;;;;16.20;99.90;;;;;;5044857;28;19954;-64
2023/05/02 13:36:47;;;;;;;;;;;16.40;99.90;;;;;;5048038;28;19970;-64
2023/05/02 13:39:18;;;;;;;;;;;16.50;99.90;;;;;;5061792;28;19933;-65
2023/05/02 13:41:50;;;;;;;;;;;16.50;99.90;;;;;;5057472;28;19932;-65
2023/05/02 13:44:22;;;;;;;;;;;16.60;99.90;;;;;;5054296;28;20008;-65
2023/05/02 13:46:53;;;;;;;;;;;16.70;99.90;;;;;;5058420;28;19932;-64
2023/05/02 13:49:25;;;;;;;;;;;16.90;99.90;;;;;;5064586;28;20373;-64
2023/05/02 13:51:57;;;;;;;;;;;17.10;99.90;;;;;;5052655;28;19924;-71
2023/05/02 13:54:24;;;;;;;;;;;17.40;99.90;;;;;;5046965;28;19943;-64
2023/05/02 13:56:56;;;;;;;;;;;17.50;99.90;;;;;;5064019;28;19924;-64
2023/05/02 13:59:28;;;;;;;;;;;17.70;99.90;;;;;;5058758;28;19979;-65
2023/05/02 14:02:00;;;;;;;;;;;17.50;99.90;;;;;;5059794;28;20424;-65
2023/05/02 14:04:31;;;;;;;;;;;17.40;99.90;;;;;;5041696;28;20358;-65
2023/05/02 14:07:03;;;;;;;;;;;17.10;99.90;;;;;;5056174;28;19924;-64
2023/05/02 14:09:35;;;;;;;;;;;16.90;99.90;;;;;;5057893;28;19925;-64
2023/05/02 14:12:07;;;;;;;;;;;16.70;99.90;;;;;;5056921;28;19924;-65
2023/05/02 14:14:36;;;;;;;;;;;16.50;99.90;;;;;;5063149;28;19925;-65
2023/05/02 14:17:07;;;;;;;;;;;16.50;99.90;;;;;;5065007;28;20018;-64
2023/05/02 14:19:39;;;;;;;;;;;16.30;99.90;;;;;;5062016;28;19929;-65
2023/05/02 14:22:11;;;;;;;;;;;16.30;99.90;;;;;;5059554;28;20292;-64
2023/05/02 14:24:43;;;;;;;;;;;16.30;99.90;;;;;;5056405;28;19933;-64
2023/05/02 14:27:17;;;;;;;;;;;16.30;99.90;;;;;;5056420;28;20335;-65
2023/05/02 14:29:48;;;;;;;;;;;16.20;99.90;;;;;;5037287;28;19929;-64
2023/05/02 14:32:20;;;;;;;;;;;16.30;99.90;;;;;;5054648;28;20591;-65
2023/05/02 14:34:52;;;;;;;;;;;16.30;99.90;;;;;;5058779;28;19998;-65
2023/05/02 14:37:24;;;;;;;;;;;16.40;99.90;;;;;;5062395;28;19928;-64
2023/05/02 14:39:57;;;;;;;;;;;16.40;99.90;;;;;;5062568;28;19925;-64
2023/05/02 14:42:29;;;;;;;;;;;16.50;99.90;;;;;;5061877;28;19931;-64
2023/05/02 14:45:01;;;;;;;;;;;16.50;99.90;;;;;;5041829;28;19925;-65
2023/05/02 14:47:33;;;;;;;;;;;16.50;99.90;;;;;;5056123;28;19936;-65
2023/05/02 14:50:05;;;;;;;;;;;16.60;99.90;;;;;;5038815;28;19928;-65
2023/05/02 14:52:37;;;;;;;;;;;16.70;99.90;;;;;;5040373;28;19929;-65
2023/05/02 14:55:09;;;;;;;;;;;16.70;99.90;;;;;;5060302;28;20351;-65
2023/05/02 14:57:36;;;;;;;;;;;16.90;99.90;;;;;;5058622;28;19924;-64